Tiempo atmosférico en la estación meteorológica de Tresviso, Cantabria (912 m.)



Fecha
DESCASC
Temp. máxima en grados centígrados (hora)
DESCASC
Temp. mínima en grados centígrados (hora)
DESCASC
Temp. media en grados centígrados
DESCASC
Racha de viento máxima en m/sg (hora)
DESCASC
Velocidad máxima media en intervalos de 10 minutos(hora)
DESCASC
Precipitaciones diarias en mm
DESCASC
Precipitaciones de 00:00 a 06:00 en mm
DESCASC
Precipitaciones de 06:00 a 12:00 en mm
DESCASC
Precipitaciones de 12:00 a 18:00 en mm
DESCASC
Precipitaciones de 18:00 a 24:00 en mm
DESCASC
17-09-2020 25.9 (16:10) 16.5 (06:10) 21.2 11.39 (20:30) 8.06 (20:30) 2.2 2.2 0 0 0
16-09-2020 25.2 (14:00) 17.4 (08:10) 21.3 5 (13:30) 2.5 (21:20) 0 0 0 0 0
15-09-2020 22.4 (13:20) 14.5 (04:10) 18.4 12.22 (02:50) 3.89 (02:50) 3 3 0 0 0
14-09-2020 26.2 (14:00) 15.3 (00:00) 20.8 9.44 (22:20) 5.83 (22:20) 3.2 0 0 0 3.2
13-09-2020 29.9 (15:50) 17.8 (00:00) 23.8 3.89 (07:20) 2.78 (07:40) 0 0 0 0 0
12-09-2020 24.4 (16:20) 15.1 (00:00) 19.8 3.33 (15:30) 1.67 (05:20) 0 0 0 0 0
11-09-2020 24.4 (15:20) 13.6 (00:00) 19 3.89 (05:20) 2.5 (05:20) 0 0 0 0 0
10-09-2020 22.7 (15:10) 13.3 (00:00) 18 3.89 (15:00) 2.22 (15:30) 0 0 0 0 0
09-09-2020 22.9 (16:10) 12.6 (00:00) 17.8 3.89 (13:00) 2.5 (08:00) 0 0 0 0 0
08-09-2020 18.7 (17:40) 9.3 (00:00) 14 6.94 (13:10) 4.17 (11:30) 0 0 0 0 0
07-09-2020 15.6 (17:30) 9.4 (07:30) 12.5 6.11 (04:50) 4.17 (04:50) 1.6 1.4 0.2 0 0
06-09-2020 13 (00:00) 10.3 (00:00) 11.7 6.94 (04:50) 5 (04:50) 3 2 0.6 0 0.4
05-09-2020 19.1 (00:00) 12.8 (00:00) 16 6.39 (21:40) 4.17 (21:30) 3.4 0 1 0.8 1.6
04-09-2020 29.7 (15:40) 18 (00:00) 23.9 3.61 (16:00) 2.22 (00:40) 0 0 0 0 0
03-09-2020 26.2 (15:40) 13.6 (00:00) 19.9 3.89 (16:40) 1.94 (15:50) 0 0 0 0 0
02-09-2020 20 (16:00) 9.8 (00:00) 14.9 5.28 (17:00) 2.5 (12:30) 0 0 0 0 0
01-09-2020 18.1 (13:20) 11.4 (00:00) 14.8 8.06 (15:20) 4.44 (15:20) 0 0 0 0 0
31-08-2020 21.2 (16:20) 7 (00:00) 14.1 4.17 (15:00) 2.5 (22:20) 0 0 0 0 0
30-08-2020 15 (15:30) 7.6 (00:00) 11.3 9.72 (08:40) 6.11 (11:30) 16.4 7.6 8.4 0.2 0.2
29-08-2020 10.9 (15:10) 8.1 (00:00) 9.5 18.06 (06:40) 8.89 (06:40) 50.6 1.6 7.4 26.2 15.4
28-08-2020 16.2 (00:00) 10.4 (00:00) 13.3 16.67 (22:00) 9.44 (22:00) 0.8 0.6 0.2 0 0
27-08-2020 24.7 (12:40) 16.2 (00:00) 20.5 5.56 (14:40) 2.78 (08:30) 1.2 0 0 0 1.2
26-08-2020 23.9 (15:50) 15.8 (00:00) 19.8 5 (14:00) 2.78 (06:30) 0 0 0 0 0
25-08-2020 25.8 (16:30) 16.3 (00:00) 21 3.89 (16:40) 2.5 (18:10) 0 0 0 0 0
24-08-2020 22.4 (17:40) 12.5 (00:00) 17.4 3.89 (14:30) 2.22 (13:40) 0.4 0.4 0 0 0
23-08-2020 19.1 (14:40) 12.2 (00:00) 15.7 6.39 (17:30) 3.89 (17:00) 0.2 0 0 0 0.2
22-08-2020 17.9 (12:50) 12.7 (00:00) 15.3 6.67 (13:50) 4.17 (14:10) 0.6 0 0 0 0.6
21-08-2020 17.9 (10:50) 14.1 (00:00) 16 6.67 (15:40) 4.17 (15:30) 0 0 0 0 0
20-08-2020 25.1 (14:10) 15 (00:00) 20.1 7.78 (20:10) 4.17 (20:40) 3.2 0 0 2.2 1

Gráficas

Temp. máximas Temp. mínimas Temp. medias Precipitaciones Rachas de viento máximas Velocidades máximas media en intervalos de 10 minutos

Datos horarios

Fecha y hora oficial Temperatura (ºC) Velocidad del viento (km/h) Dirección del viento Racha (km/h) Dirección de racha Precipitación (mm) Presión (hPa) Tendencia (hPa) Humedad (%)
2020-09-18 23:00:00 15.6 7 Este 30 Sudeste 0 -- -- 72
2020-09-18 22:00:00 16.4 5 Norte 9 Noroeste 0 -- -- 70
2020-09-18 21:00:00 16.5 5 Norte 10 Sur 0 -- -- 70
2020-09-18 20:00:00 16.8 5 Nordeste 12 Noroeste 0 -- -- 73
2020-09-18 19:00:00 17.9 0 Calma 8 Sur 0 -- -- 70
2020-09-18 18:00:00 18 7 Nordeste 26 Nordeste 0 -- -- 61
2020-09-18 17:00:00 20.5 9 Nordeste 22 Norte 0 -- -- 53
2020-09-18 16:00:00 21.9 9 Este 36 Sur 0 -- -- 50
2020-09-18 15:00:00 22 13 Sur 45 Sudeste 0 -- -- 47
2020-09-18 14:00:00 21.1 30 Sur 56 Sur 0 -- -- 45
2020-09-18 13:00:00 21.4 16 Sur 45 Sur 0 -- -- 43
2020-09-18 12:00:00 19.5 6 Este 22 Sur 0 -- -- 59
2020-09-18 11:00:00 15.1 14 Nordeste 22 Oeste 0 -- -- 68
2020-09-18 10:00:00 14.3 14 Oeste 62 Sudoeste 0.8 -- -- 71
2020-09-18 09:00:00 15 7 Oeste 15 Oeste 1.2 -- -- 77
2020-09-18 08:00:00 14.2 12 Nordeste 31 Sudeste 0.4 -- -- 91
2020-09-18 07:00:00 16.2 8 Este 21 Sudeste 0 -- -- 71
2020-09-18 06:00:00 16.5 9 Norte 22 Sudeste 0 -- -- 68
2020-09-18 05:00:00 17 7 Este 36 Sur 0 -- -- 66
2020-09-18 04:00:00 17.6 9 Sudeste 40 Sudeste 0 -- -- 64
2020-09-18 03:00:00 19.2 14 Sudeste 42 Sur 0 -- -- 59
2020-09-18 02:00:00 19.8 18 Sudeste 42 Sur 0 -- -- 61
2020-09-18 01:00:00 19.2 8 Nordeste 18 Nordeste 0 -- -- 65
2020-09-18 00:00:00 19.6 10 Nordeste 17 Este 0 -- -- 65
2020-09-17 23:00:00 20.1 8 Nordeste 24 Sudeste 0 -- -- 63
2020-09-17 22:00:00 20.4 4 Nordeste 17 Sudeste 0 -- -- 60
2020-09-17 21:00:00 21.5 6 Este 41 Sur 0 -- -- 55
2020-09-17 20:00:00 21.2 10 Sudeste 27 Sudeste 0 -- -- 56
2020-09-17 19:00:00 22.9 12 Sudeste 26 Sudeste 0 -- -- 53
2020-09-17 18:00:00 24.1 6 Sudeste 25 Sur 0 -- -- 49
2020-09-17 17:00:00 25.6 9 Sudeste 24 Sur 0 -- -- 48
2020-09-17 16:00:00 25.7 9 Sudeste 37 Sur 0 -- -- 48
2020-09-17 15:00:00 25.1 11 Sudeste 33 Sudeste 0 -- -- 51
2020-09-17 14:00:00 23.6 10 Sudeste 29 Sudeste 0 -- -- 63
2020-09-17 13:00:00 21.6 18 Sudeste 31 Sur 0 -- -- 63
2020-09-17 12:00:00 21.4 13 Sudeste 31 Sudeste 0 -- -- 60
2020-09-17 11:00:00 19 7 Este 23 Este 0 -- -- 69
2020-09-17 10:00:00 16.9 4 Nordeste 8 Norte 0 -- -- 82
2020-09-17 09:00:00 17.2 6 Norte 14 Norte 0 -- -- 78
2020-09-17 08:00:00 17.1 8 Nordeste 21 Norte 0 -- -- 81
2020-09-17 07:00:00 16.8 9 Norte 21 Nordeste 0 -- -- 82
2020-09-17 06:00:00 16.6 11 Nordeste 35 Sur 0.8 -- -- 84
2020-09-17 05:00:00 17.2 15 Sudeste 33 Sur 1.4 -- -- 86
2020-09-17 04:00:00 18.3 5 Nordeste 8 Nordeste 0 -- -- 80
2020-09-17 03:00:00 18.6 4 Nordeste 13 Nordeste 0 -- -- 77
2020-09-17 02:00:00 18.2 6 Norte 13 Norte 0 -- -- 80
2020-09-17 01:00:00 17.9 3 Norte 8 Norte 0 -- -- 84
2020-09-17 00:00:00 19.6 4 Norte 9 Norte 0 -- -- 63
2020-09-16 23:00:00 19.4 5 Norte 10 Norte 0 -- -- 70
2020-09-16 22:00:00 19.3 5 Nordeste 14 Norte 0 -- -- 74
2020-09-16 21:00:00 19.5 7 Norte 10 Noroeste 0 -- -- 80
2020-09-16 20:00:00 19.6 6 Norte 13 Este 0 -- -- 76
2020-09-16 19:00:00 20.9 3 Nordeste 6 Nordeste 0 -- -- 79
2020-09-16 18:00:00 22 0 Calma 8 Nordeste 0 -- -- 77
2020-09-16 17:00:00 23.1 4 Nordeste 10 Nordeste 0 -- -- 71
2020-09-16 16:00:00 23.1 6 Nordeste 12 Nordeste 0 -- -- 63
2020-09-16 15:00:00 23.7 5 Este 15 Este 0 -- -- 55
2020-09-16 14:00:00 25.2 5 Este 18 Sudeste 0 -- -- 46
2020-09-16 13:00:00 24.5 5 Este 14 Este 0 -- -- 50
2020-09-16 12:00:00 22.3 6 Nordeste 12 Nordeste 0 -- -- 57
2020-09-16 11:00:00 21.2 3 Nordeste 12 Norte 0 -- -- 59
2020-09-16 10:00:00 19.7 6 Nordeste 12 Nordeste 0 -- -- 59
2020-09-16 09:00:00 18.4 0 Calma 9 Norte 0 -- -- 59
2020-09-16 08:00:00 17.5 5 Norte 12 Norte 0 -- -- 63
2020-09-16 07:00:00 17.8 6 Norte 15 Norte 0 -- -- 63
2020-09-16 06:00:00 17.8 7 Nordeste 12 Norte 0 -- -- 65
2020-09-16 05:00:00 17.9 6 Norte 12 Norte 0 -- -- 66
2020-09-16 04:00:00 18.1 6 Norte 9 Norte 0 -- -- 64
2020-09-16 03:00:00 18.3 0 Calma 6 Norte 0 -- -- 65
2020-09-16 02:00:00 18.6 5 Noroeste 9 Noroeste 0 -- -- 65
2020-09-16 01:00:00 17.9 7 Norte 10 Norte 0 -- -- 69
2020-09-16 00:00:00 17.8 4 Norte 8 Norte 0 -- -- 73
2020-09-15 23:00:00 17.4 0 Calma 6 Nordeste 0 -- -- 77
2020-09-15 22:00:00 17 2 Nordeste 9 Norte 0 -- -- 76
2020-09-15 21:00:00 17.6 7 Norte 9 Norte 0 -- -- 73
2020-09-15 20:00:00 18.4 0 Calma 8 Sudoeste 0 -- -- 73
2020-09-15 19:00:00 19.7 4 Sudoeste 8 Sur 0 -- -- 73
2020-09-15 18:00:00 20.3 4 Sur 7 Sur 0 -- -- 70
2020-09-15 17:00:00 20.6 5 Sur 10 Sur 0 -- -- 69
2020-09-15 16:00:00 21.6 5 Sudeste 10 Sudeste 0 -- -- 68
2020-09-15 15:00:00 21.4 5 Sudeste 11 Sur 0 -- -- 68
2020-09-15 14:00:00 21.3 8 Sur 14 Sur 0 -- -- 72
2020-09-15 13:00:00 21.8 8 Este 14 Nordeste 0 -- -- 61
2020-09-15 12:00:00 20.2 8 Nordeste 16 Nordeste 0 -- -- 62
2020-09-15 11:00:00 19.8 5 Nordeste 12 Nordeste 0 -- -- 64
2020-09-15 10:00:00 17.7 4 Nordeste 11 Nordeste 0 -- -- 74
2020-09-15 09:00:00 16.4 6 Norte 12 Norte 0 -- -- 73
2020-09-15 08:00:00 15.4 4 Noroeste 17 Nordeste 0 -- -- 77
2020-09-15 07:00:00 14.7 8 Norte 14 Norte 0 -- -- 84
2020-09-15 06:00:00 15 9 Nordeste 27 Oeste 0.8 -- -- 85
2020-09-15 05:00:00 14.7 4 Noroeste 16 Nordeste 0 -- -- 89
2020-09-15 04:00:00 14.7 10 Nordeste 15 Noroeste 2 -- -- 90
2020-09-15 03:00:00 16.5 11 Sur 44 Sudeste 0 -- -- 76
2020-09-15 02:00:00 15.1 9 Nordeste 16 Norte 0 -- -- 88
2020-09-15 01:00:00 15.8 4 Este 13 Nordeste 0.2 -- -- 83
2020-09-15 00:00:00 16.4 9 Nordeste 27 Nordeste 0 -- -- 77
2020-09-14 23:00:00 15.3 7 Nordeste 34 Noroeste 3.2 -- -- 91
2020-09-14 22:00:00 16.5 8 Sudoeste 13 Sur 0 -- -- 81
2020-09-14 21:00:00 18.6 4 Nordeste 8 Norte 0 -- -- 68
2020-09-14 20:00:00 19.7 5 Nordeste 9 Nordeste 0 -- -- 64
2020-09-14 19:00:00 21 6 Nordeste 11 Nordeste 0 -- -- 60
2020-09-14 18:00:00 22.9 4 Sudeste 11 Sur 0 -- -- 58
2020-09-14 17:00:00 21.4 3 Nordeste 12 Nordeste 0 -- -- 64
2020-09-14 16:00:00 20.4 4 Norte 21 Norte 0 -- -- 65
2020-09-14 15:00:00 22.3 3 Sur 10 Sur 0 -- -- 59
2020-09-14 14:00:00 26.2 5 Nordeste 15 Este 0 -- -- 48
2020-09-14 13:00:00 25.2 9 Nordeste 16 Nordeste 0 -- -- 46
2020-09-14 12:00:00 23.1 10 Norte 15 Norte 0 -- -- 47
2020-09-14 11:00:00 23 12 Nordeste 16 Nordeste 0 -- -- 46
2020-09-14 10:00:00 22.3 12 Nordeste 19 Nordeste 0 -- -- 47
2020-09-14 09:00:00 21.3 11 Nordeste 18 Nordeste 0 -- -- 46
2020-09-14 08:00:00 20.6 13 Nordeste 21 Norte 0 -- -- 45
2020-09-14 07:00:00 20.7 7 Norte 18 Nordeste 0 -- -- 44
2020-09-14 06:00:00 21.1 11 Norte 23 Nordeste 0 -- -- 42
2020-09-14 05:00:00 22.2 12 Nordeste 24 Nordeste 0 -- -- 41
2020-09-14 04:00:00 21.8 13 Nordeste 18 Nordeste 0 -- -- 43
2020-09-14 03:00:00 21.9 10 Nordeste 18 Norte 0 -- -- 42
2020-09-14 02:00:00 22 8 Nordeste 15 Nordeste 0 -- -- 43
2020-09-14 01:00:00 23.4 7 Norte 12 Noroeste 0 -- -- 36
2020-09-14 00:00:00 23.2 2 Noroeste 13 Noroeste 0 -- -- 40
2020-09-13 23:00:00 23 8 Norte 11 Norte 0 -- -- 43
2020-09-13 22:00:00 23.1 7 Norte 10 Norte 0 -- -- 44
2020-09-13 21:00:00 24.1 5 Noroeste 10 Noroeste 0 -- -- 43
2020-09-13 20:00:00 25 2 Noroeste 9 Noroeste 0 -- -- 36
2020-09-13 19:00:00 27.9 4 Sudoeste 8 Oeste 0 -- -- 33
2020-09-13 18:00:00 28.2 3 Nordeste 10 Sur 0 -- -- 35
2020-09-13 17:00:00 29.3 3 Este 12 Sur 0 -- -- 31
2020-09-13 16:00:00 29.8 5 Sur 12 Sur 0 -- -- 29
2020-09-13 15:00:00 29.2 5 Sudeste 11 Sudeste 0 -- -- 33
2020-09-13 14:00:00 28 3 Este 10 Sudeste 0 -- -- 31
2020-09-13 13:00:00 26.6 5 Sudeste 11 Sudeste 0 -- -- 39
2020-09-13 12:00:00 24.6 5 Nordeste 10 Nordeste 0 -- -- 39
2020-09-13 11:00:00 23.2 6 Nordeste 12 Nordeste 0 -- -- 40
2020-09-13 10:00:00 21.6 6 Nordeste 9 Nordeste 0 -- -- 35
2020-09-13 09:00:00 19.9 6 Norte 13 Norte 0 -- -- 38
2020-09-13 08:00:00 18.6 9 Norte 14 Norte 0 -- -- 44
2020-09-13 07:00:00 18.4 9 Norte 12 Norte 0 -- -- 44
2020-09-13 06:00:00 18.8 7 Norte 13 Norte 0 -- -- 45
2020-09-13 05:00:00 18.4 7 Norte 11 Norte 0 -- -- 49
2020-09-13 04:00:00 18.1 8 Norte 12 Noroeste 0 -- -- 52
2020-09-13 03:00:00 18.3 4 Norte 9 Norte 0 -- -- 52
2020-09-13 02:00:00 18.2 4 Norte 12 Norte 0 -- -- 57
2020-09-13 01:00:00 18.3 8 Nordeste 12 Norte 0 -- -- 65
2020-09-13 00:00:00 18.7 3 Norte 8 Norte 0 -- -- 65
2020-09-12 23:00:00 18 4 Nordeste 5 Norte 0 -- -- 80
2020-09-12 22:00:00 18.7 0 Calma 9 Norte 0 -- -- 72
2020-09-12 21:00:00 18.8 2 Oeste 6 Norte 0 -- -- 83
2020-09-12 20:00:00 19.1 4 Sudoeste 8 Sudoeste 0 -- -- 87
2020-09-12 19:00:00 19.5 3 Sur 7 Sur 0 -- -- 88
2020-09-12 18:00:00 19.5 4 Sur 10 Sudeste 0 -- -- 87
2020-09-12 17:00:00 22 5 Sur 10 Sur 0 -- -- 78
2020-09-12 16:00:00 24.1 5 Sur 12 Sur 0 -- -- 68
2020-09-12 15:00:00 24.1 6 Sur 11 Sur 0 -- -- 65
2020-09-12 14:00:00 22.3 4 Este 9 Sudeste 0 -- -- 63
2020-09-12 13:00:00 22.3 3 Sudeste 9 Sur 0 -- -- 66
2020-09-12 12:00:00 20.8 4 Sur 8 Sur 0 -- -- 68
2020-09-12 11:00:00 19.3 3 Sudeste 6 Nordeste 0 -- -- 70
2020-09-12 10:00:00 17.9 0 Calma 3 Sudoeste 0 -- -- 64
2020-09-12 09:00:00 16.2 3 Norte 5 Norte 0 -- -- 69
2020-09-12 08:00:00 15.4 0 Calma 5 Norte 0 -- -- 70
2020-09-12 07:00:00 15.3 0 Calma 6 Norte 0 -- -- 72
2020-09-12 06:00:00 15.6 0 Calma 10 Noroeste 0 -- -- 76
2020-09-12 05:00:00 15.9 3 Oeste 6 Noroeste 0 -- -- 80
2020-09-12 04:00:00 15.7 0 Calma 6 Sudoeste 0 -- -- 84
2020-09-12 03:00:00 15.4 4 Norte 6 Norte 0 -- -- 87
2020-09-12 02:00:00 16.4 4 Norte 6 Norte 0 -- -- 83
2020-09-12 01:00:00 16.6 4 Norte 7 Noroeste 0 -- -- 86
2020-09-12 00:00:00 16.6 3 Norte 6 Norte 0 -- -- 86
2020-09-11 23:00:00 16.8 3 Noroeste 7 Norte 0 -- -- 86
2020-09-11 22:00:00 17 5 Norte 10 Norte 0 -- -- 82
2020-09-11 21:00:00 17.2 6 Noroeste 10 Oeste 0 -- -- 82
2020-09-11 20:00:00 18 5 Sudoeste 8 Sudoeste 0 -- -- 91
2020-09-11 19:00:00 19.4 5 Sudeste 8 Sudeste 0 -- -- 86
2020-09-11 18:00:00 21.6 3 Sur 9 Sur 0 -- -- 77
2020-09-11 17:00:00 23.4 5 Sudeste 12 Sur 0 -- -- 71
2020-09-11 16:00:00 24.2 6 Sur 11 Este 0 -- -- 63
2020-09-11 15:00:00 24.2 6 Sur 12 Sudeste 0 -- -- 56
2020-09-11 14:00:00 23 3 Este 10 Sur 0 -- -- 50
2020-09-11 13:00:00 22.2 3 Sudeste 9 Nordeste 0 -- -- 56
2020-09-11 12:00:00 20.8 4 Nordeste 11 Nordeste 0 -- -- 54
2020-09-11 11:00:00 19 6 Nordeste 10 Nordeste 0 -- -- 57
2020-09-11 10:00:00 16.9 2 Este 9 Nordeste 0 -- -- 72
2020-09-11 09:00:00 14.6 0 Calma 5 Norte 0 -- -- 77
2020-09-11 08:00:00 13.6 3 Norte 5 Norte 0 -- -- 85
2020-09-11 07:00:00 13.8 0 Calma 11 Norte 0 -- -- 85
2020-09-11 06:00:00 13.8 4 Nordeste 14 Norte 0 -- -- 86
2020-09-11 05:00:00 14.4 5 Norte 10 Sudeste 0 -- -- 84
2020-09-11 04:00:00 14.4 5 Norte 9 Norte 0 -- -- 82
2020-09-11 03:00:00 14.9 3 Sudeste 9 Norte 0 -- -- 84
2020-09-11 02:00:00 16.3 7 Norte 12 Noroeste 0 -- -- 67
2020-09-11 01:00:00 15.4 3 Nordeste 6 Nordeste 0 -- -- 80
2020-09-11 00:00:00 15.3 5 Norte 7 Norte 0 -- -- 84
2020-09-10 23:00:00 15.8 4 Norte 8 Norte 0 -- -- 79
2020-09-10 22:00:00 16 3 Noroeste 6 Noroeste 0 -- -- 74
2020-09-10 21:00:00 15.7 0 Calma 4 Nordeste 0 -- -- 81
2020-09-10 20:00:00 18.9 0 Calma 6 Sur 0 -- -- 69
2020-09-10 19:00:00 21.1 4 Sur 10 Sudeste 0 -- -- 66
2020-09-10 18:00:00 21.9 5 Sudeste 11 Sur 0 -- -- 62
2020-09-10 17:00:00 22.5 6 Sudeste 13 Sur 0 -- -- 62
2020-09-10 16:00:00 22.4 4 Sudeste 14 Sur 0 -- -- 65
2020-09-10 15:00:00 22.6 6 Sur 14 Sur 0 -- -- 63
2020-09-10 14:00:00 21.7 6 Sur 13 Sudoeste 0 -- -- 55
2020-09-10 13:00:00 20.3 3 Nordeste 10 Nordeste 0 -- -- 55
2020-09-10 12:00:00 18.7 6 Nordeste 9 Nordeste 0 -- -- 54
2020-09-10 11:00:00 18.8 4 Nordeste 8 Nordeste 0 -- -- 52
2020-09-10 10:00:00 17.4 3 Nordeste 8 Nordeste 0 -- -- 62
2020-09-10 09:00:00 14.4 3 Sudoeste 5 Sudoeste 0 -- -- 71
2020-09-10 08:00:00 13.7 5 Norte 10 Norte 0 -- -- 72
2020-09-10 07:00:00 13.9 5 Norte 9 Noroeste 0 -- -- 64
2020-09-10 06:00:00 14 5 Norte 10 Norte 0 -- -- 66
2020-09-10 05:00:00 13.8 3 Norte 8 Norte 0 -- -- 68
2020-09-10 04:00:00 14.1 4 Norte 7 Noroeste 0 -- -- 79
2020-09-10 03:00:00 13.3 0 Calma 9 Este 0 -- -- 83
2020-09-10 02:00:00 14 5 Norte 10 Norte 0 -- -- 79
2020-09-10 01:00:00 14.2 0 Calma 4 Noroeste 0 -- -- 74
2020-09-10 00:00:00 14.9 3 Norte 6 Norte 0 -- -- 67
2020-09-09 23:00:00 15.4 5 Norte 10 Norte 0 -- -- 59
2020-09-09 22:00:00 15.6 3 Norte 10 Noroeste 0 -- -- 68
2020-09-09 21:00:00 16.6 3 Noroeste 6 Noroeste 0 -- -- 60
2020-09-09 20:00:00 19 3 Sur 5 Sur 0 -- -- 64
2020-09-09 19:00:00 21.1 3 Sudeste 9 Sur 0 -- -- 54
2020-09-09 18:00:00 21.5 6 Sudeste 12 Sur 0 -- -- 49
2020-09-09 17:00:00 22.3 5 Sur 12 Sur 0 -- -- 56
2020-09-09 16:00:00 22.6 4 Este 12 Nordeste 0 -- -- 52
2020-09-09 15:00:00 22.3 4 Sudeste 9 Este 0 -- -- 53
2020-09-09 14:00:00 21.8 3 Este 12 Sur 0 -- -- 52
2020-09-09 13:00:00 20.2 8 Sur 14 Sur 0 -- -- 56
2020-09-09 12:00:00 19.9 3 Este 8 Sudeste 0 -- -- 57
2020-09-09 11:00:00 19.5 2 Sur 7 Noroeste 0 -- -- 60
2020-09-09 10:00:00 16.7 0 Calma 5 Nordeste 0 -- -- 54
2020-09-09 09:00:00 16.4 2 Oeste 10 Noroeste 0 -- -- 49
2020-09-09 08:00:00 15.5 9 Norte 14 Nordeste 0 -- -- 50
2020-09-09 07:00:00 15.4 7 Norte 12 Norte 0 -- -- 52
2020-09-09 06:00:00 15 6 Norte 11 Noroeste 0 -- -- 54
2020-09-09 05:00:00 14.6 4 Norte 12 Nordeste 0 -- -- 58
2020-09-09 04:00:00 13.9 4 Oeste 8 Noroeste 0 -- -- 73
2020-09-09 03:00:00 13.3 0 Calma 6 Norte 0 -- -- 82
2020-09-09 02:00:00 12.9 5 Norte 12 Norte 0 -- -- 87
2020-09-09 01:00:00 12.8 5 Este 10 Nordeste 0 -- -- 88
2020-09-09 00:00:00 13.4 3 Norte 8 Norte 0 -- -- 85
2020-09-08 23:00:00 13.5 7 Norte 11 Norte 0 -- -- 82
2020-09-08 22:00:00 13.4 4 Sudoeste 5 Nordeste 0 -- -- 94
2020-09-08 21:00:00 14.1 3 Norte 4 Sudoeste 0 -- -- 89
2020-09-08 20:00:00 17 3 Sudoeste 6 Sudoeste 0 -- -- 79
2020-09-08 19:00:00 18 3 Este 8 Sudeste 0 -- -- 71
2020-09-08 18:00:00 17.9 3 Nordeste 9 Nordeste 0 -- -- 71
2020-09-08 17:00:00 18.2 4 Nordeste 16 Nordeste 0 -- -- 71
2020-09-08 16:00:00 17.7 8 Nordeste 22 Nordeste 0 -- -- 69
2020-09-08 15:00:00 17.2 10 Nordeste 25 Nordeste 0 -- -- 68
2020-09-08 14:00:00 17.1 10 Nordeste 25 Este 0 -- -- 61
2020-09-08 13:00:00 16.3 13 Nordeste 24 Nordeste 0 -- -- 61
2020-09-08 12:00:00 15.4 13 Nordeste 24 Nordeste 0 -- -- 62
2020-09-08 11:00:00 13.9 11 Nordeste 23 Nordeste 0 -- -- 70
2020-09-08 10:00:00 13.2 12 Nordeste 22 Nordeste 0 -- -- 72
2020-09-08 09:00:00 10.8 9 Nordeste 16 Nordeste 0 -- -- 78
2020-09-08 08:00:00 9.9 4 Norte 7 Norte 0 -- -- 73
2020-09-08 07:00:00 9.6 2 Nordeste 16 Nordeste 0 -- -- 77
2020-09-08 06:00:00 9.6 6 Norte 12 Nordeste 0 -- -- 79
2020-09-08 05:00:00 9.9 8 Sudeste 15 Sudeste 0 -- -- 86
2020-09-08 04:00:00 9.6 7 Norte 11 Norte 0 -- -- 85
2020-09-08 03:00:00 9.9 5 Norte 12 Nordeste 0 -- -- 90
2020-09-08 02:00:00 10.1 6 Norte 12 Nordeste 0 -- -- 87
2020-09-08 01:00:00 9.8 5 Norte 10 Norte 0 -- -- 89
2020-09-08 00:00:00 10 5 Norte 9 Nordeste 0 -- -- 81
2020-09-07 23:00:00 10.4 6 Norte 15 Este 0 -- -- 93
2020-09-07 22:00:00 11.1 3 Nordeste 10 Nordeste 0 -- -- 94
2020-09-07 21:00:00 11.6 3 Sudeste 10 Nordeste 0 -- -- 93
2020-09-07 20:00:00 12.2 7 Nordeste 15 Nordeste 0 -- -- 89
2020-09-07 19:00:00 13.3 10 Nordeste 20 Nordeste 0 -- -- 85
2020-09-07 18:00:00 14.3 9 Nordeste 18 Nordeste 0 -- -- 82
2020-09-07 17:00:00 15.2 9 Nordeste 20 Este 0 -- -- 78
2020-09-07 16:00:00 14 6 Nordeste 17 Nordeste 0 -- -- 84
2020-09-07 15:00:00 14 8 Nordeste 15 Nordeste 0 -- -- 85
2020-09-07 14:00:00 13.7 6 Nordeste 13 Este 0 -- -- 81
2020-09-07 13:00:00 12.8 8 Nordeste 13 Nordeste 0 -- -- 85
2020-09-07 12:00:00 11.8 4 Norte 7 Nordeste 0.2 -- -- 90
2020-09-07 11:00:00 11.7 3 Este 8 Nordeste 0 -- -- 91
2020-09-07 10:00:00 11.2 5 Oeste 9 Sudoeste 0 -- -- 87
2020-09-07 09:00:00 10.2 5 Oeste 8 Oeste 0 -- -- 91
2020-09-07 08:00:00 9.6 3 Sudoeste 6 Oeste 0 -- -- 93
2020-09-07 07:00:00 9.5 4 Sudoeste 18 Nordeste 0 -- -- 98
2020-09-07 06:00:00 10 4 Sudoeste 13 Este 0 -- -- 97
2020-09-07 05:00:00 9.9 10 Nordeste 22 Nordeste 0 -- -- 99
2020-09-07 04:00:00 10 9 Nordeste 22 Nordeste 0.4 -- -- 99
2020-09-07 03:00:00 10.3 6 Nordeste 17 Nordeste 0 -- -- 99
2020-09-07 02:00:00 10.5 7 Nordeste 18 Nordeste 0.2 -- -- 99
2020-09-07 01:00:00 10.8 4 Nordeste 9 Este 0.8 -- -- 98
2020-09-07 00:00:00 10.8 5 Sudoeste 8 Oeste 0.4 -- -- 96
2020-09-06 23:00:00 10.7 0 Calma 4 Norte 0 -- -- 96
2020-09-06 22:00:00 10.9 3 Sudoeste 8 Noroeste 0 -- -- 92
2020-09-06 21:00:00 11.1 4 Noroeste 15 Sudoeste 0 -- -- 87
2020-09-06 20:00:00 11.5 6 Sudoeste 11 Oeste 0 -- -- 91
2020-09-06 19:00:00 11.7 5 Sur 12 Este 0 -- -- 92
2020-09-06 18:00:00 11.4 9 Nordeste 24 Nordeste 0 -- -- 92
2020-09-06 17:00:00 12 7 Nordeste 24 Nordeste 0 -- -- 91
2020-09-06 16:00:00 11.4 11 Nordeste 19 Nordeste 0 -- -- 94
2020-09-06 15:00:00 12.2 4 Nordeste 12 Nordeste 0 -- -- 94
2020-09-06 14:00:00 11.7 8 Nordeste 15 Nordeste 0 -- -- 97
2020-09-06 13:00:00 11.7 6 Norte 19 Nordeste 0 -- -- 97
2020-09-06 12:00:00 12.5 3 Nordeste 14 Norte 0 -- -- 100
2020-09-06 11:00:00 11 11 Norte 21 Nordeste 0.2 -- -- 100
2020-09-06 10:00:00 11.3 3 Este 13 Nordeste 0.2 -- -- 100
2020-09-06 09:00:00 10.6 8 Nordeste 20 Nordeste 0 -- -- 100
2020-09-06 08:00:00 10.3 12 Nordeste 22 Nordeste 0.2 -- -- 100
2020-09-06 07:00:00 10.5 12 Norte 21 Nordeste 0 -- -- 100
2020-09-06 06:00:00 10.8 18 Nordeste 24 Nordeste 0.4 -- -- 100
2020-09-06 05:00:00 11.3 13 Nordeste 25 Nordeste 0.4 -- -- 100
2020-09-06 04:00:00 11.8 15 Nordeste 23 Nordeste 0.4 -- -- 100
2020-09-06 03:00:00 12.4 8 Nordeste 14 Nordeste 0.2 -- -- 100
2020-09-06 02:00:00 12.5 8 Nordeste 13 Norte 0 -- -- 100
2020-09-06 01:00:00 12.8 2 Este 5 Nordeste 0.6 -- -- 99
2020-09-06 00:00:00 13 2 Sudoeste 4 Sudoeste 0.2 -- -- 99
2020-09-05 23:00:00 12.9 0 Calma 19 Nordeste 0.2 -- -- 99
2020-09-05 22:00:00 12.8 12 Nordeste 23 Nordeste 0.4 -- -- 99
2020-09-05 21:00:00 13.2 9 Nordeste 21 Nordeste 0.4 -- -- 99
2020-09-05 20:00:00 13.4 3 Sur 6 Sur 0.2 -- -- 99
2020-09-05 19:00:00 13.7 0 Calma 7 Nordeste 0.2 -- -- 98
2020-09-05 18:00:00 13.8 3 Sur 9 Nordeste 0.2 -- -- 97
2020-09-05 17:00:00 14.5 3 Sudeste 6 Sudeste 0 -- -- 96
2020-09-05 16:00:00 13.9 3 Sudoeste 8 Sudoeste 0 -- -- 97
2020-09-05 15:00:00 14.2 4 Sudeste 18 Nordeste 0.2 -- -- 96
2020-09-05 14:00:00 14.4 6 Nordeste 17 Nordeste 0 -- -- 96
2020-09-05 13:00:00 15.2 6 Este 13 Nordeste 0.4 -- -- 97
2020-09-05 12:00:00 14.7 3 Sudeste 13 Norte 0 -- -- 98
2020-09-05 11:00:00 14.3 5 Nordeste 14 Nordeste 0.2 -- -- 98
2020-09-05 10:00:00 14.3 6 Nordeste 12 Nordeste 0.6 -- -- 99
2020-09-05 09:00:00 14.4 4 Nordeste 10 Nordeste 0.2 -- -- 98
2020-09-05 08:00:00 14.8 3 Sudeste 8 Sur 0 -- -- 98
2020-09-05 07:00:00 15 4 Sudoeste 5 Sudoeste 0 -- -- 96
2020-09-05 06:00:00 15.1 4 Sur 10 Sudoeste 0 -- -- 93
2020-09-05 05:00:00 15 6 Sudoeste 13 Oeste 0 -- -- 91
2020-09-05 04:00:00 15.1 5 Oeste 8 Noroeste 0 -- -- 93
2020-09-05 03:00:00 15.2 2 Norte 6 Sudoeste 0 -- -- 96
2020-09-05 02:00:00 16.1 0 Calma 5 Sur 0 -- -- 84
2020-09-05 01:00:00 16.9 3 Sur 6 Sudoeste 0 -- -- 79
2020-09-05 00:00:00 19.1 3 Nordeste 10 Noroeste 0 -- -- 55
2020-09-04 23:00:00 20.8 2 Oeste 12 Norte 0 -- -- 47
2020-09-04 22:00:00 21.7 3 Sudeste 12 Norte 0 -- -- 45
2020-09-04 21:00:00 22.4 4 Noroeste 9 Noroeste 0 -- -- 47
2020-09-04 20:00:00 25.2 4 Sudoeste 6 Sur 0 -- -- 41
2020-09-04 19:00:00 27.2 4 Sur 10 Sur 0 -- -- 37
2020-09-04 18:00:00 27.8 6 Sur 12 Sur 0 -- -- 38
2020-09-04 17:00:00 29 7 Sur 13 Sudeste 0 -- -- 39
2020-09-04 16:00:00 29.6 7 Sur 13 Sur 0 -- -- 39
2020-09-04 15:00:00 29.5 5 Sur 10 Sur 0 -- -- 38
2020-09-04 14:00:00 27.9 4 Nordeste 8 Nordeste 0 -- -- 32
2020-09-04 13:00:00 27.5 3 Este 8 Sur 0 -- -- 36
2020-09-04 12:00:00 26.4 5 Sudeste 10 Sudeste 0 -- -- 40
2020-09-04 11:00:00 24 3 Nordeste 9 Nordeste 0 -- -- 37
2020-09-04 10:00:00 22.3 4 Nordeste 8 Nordeste 0 -- -- 40
2020-09-04 09:00:00 20.3 0 Calma 8 Noroeste 0 -- -- 47
2020-09-04 08:00:00 19.9 4 Noroeste 11 Norte 0 -- -- 40
2020-09-04 07:00:00 19.9 7 Norte 10 Noroeste 0 -- -- 42
2020-09-04 06:00:00 19.7 4 Noroeste 10 Noroeste 0 -- -- 47
2020-09-04 05:00:00 18.4 6 Norte 9 Norte 0 -- -- 59
2020-09-04 04:00:00 18.3 6 Norte 9 Noroeste 0 -- -- 60
2020-09-04 03:00:00 18.4 5 Norte 9 Norte 0 -- -- 63
2020-09-04 02:00:00 18.7 4 Norte 7 Norte 0 -- -- 63
2020-09-04 01:00:00 18.3 5 Norte 12 Norte 0 -- -- 66
2020-09-04 00:00:00 19.5 0 Calma 8 Noroeste 0 -- -- 53
2020-09-03 23:00:00 20.3 0 Calma 8 Noroeste 0 -- -- 49
2020-09-03 22:00:00 19.7 2 Sudoeste 6 Sudoeste 0 -- -- 61
2020-09-03 21:00:00 20.1 3 Oeste 5 Sudoeste 0 -- -- 62
2020-09-03 20:00:00 23 3 Sudoeste 6 Sudoeste 0 -- -- 58
2020-09-03 19:00:00 24.6 4 Sudeste 8 Sudeste 0 -- -- 56
2020-09-03 18:00:00 25.5 4 Sudeste 9 Sudeste 0 -- -- 56
2020-09-03 17:00:00 25.8 4 Sudeste 14 Sur 0 -- -- 52
2020-09-03 16:00:00 25.9 6 Sudeste 13 Sur 0 -- -- 48
2020-09-03 15:00:00 25.9 5 Sudeste 12 Sudeste 0 -- -- 48
2020-09-03 14:00:00 25.4 6 Sur 10 Sudoeste 0 -- -- 51
2020-09-03 13:00:00 24.3 3 Sudeste 8 Sur 0 -- -- 48
2020-09-03 12:00:00 23.6 3 Este 6 Este 0 -- -- 46
2020-09-03 11:00:00 21.3 2 Nordeste 6 Nordeste 0 -- -- 47
2020-09-03 10:00:00 18.7 3 Norte 4 Nordeste 0 -- -- 55
2020-09-03 09:00:00 16 4 Sudoeste 5 Sudoeste 0 -- -- 60
2020-09-03 08:00:00 15.1 3 Norte 5 Noroeste 0 -- -- 60
2020-09-03 07:00:00 14.6 3 Norte 6 Norte 0 -- -- 71
2020-09-03 06:00:00 14 3 Norte 5 Norte 0 -- -- 80
2020-09-03 05:00:00 14 0 Calma 3 Sur 0 -- -- 84
2020-09-03 04:00:00 14.3 2 Sudoeste 3 Sudoeste 0 -- -- 84
2020-09-03 03:00:00 13.9 0 Calma 4 Sudoeste 0 -- -- 91
2020-09-03 02:00:00 13.8 0 Calma 6 Sudoeste 0 -- -- 90
2020-09-03 01:00:00 13.6 4 Norte 4 Norte 0 -- -- 93
2020-09-03 00:00:00 13.9 0 Calma 4 Oeste 0 -- -- 94
2020-09-02 23:00:00 13.8 0 Calma 10 Noroeste 0 -- -- 95
2020-09-02 22:00:00 14.6 3 Norte 9 Noroeste 0 -- -- 92
2020-09-02 21:00:00 15.3 2 Noroeste 5 Noroeste 0 -- -- 91
2020-09-02 20:00:00 16.2 0 Calma 8 Sudeste 0 -- -- 88
2020-09-02 19:00:00 17.7 5 Sudeste 11 Sur 0 -- -- 83
2020-09-02 18:00:00 18 4 Sudeste 12 Nordeste 0 -- -- 81
2020-09-02 17:00:00 19.1 8 Nordeste 19 Nordeste 0 -- -- 75
2020-09-02 16:00:00 20 4 Nordeste 14 Noroeste 0 -- -- 72
2020-09-02 15:00:00 18.4 5 Nordeste 15 Nordeste 0 -- -- 76
2020-09-02 14:00:00 17.8 6 Nordeste 15 Nordeste 0 -- -- 73
2020-09-02 13:00:00 16.7 6 Nordeste 15 Nordeste 0 -- -- 73
2020-09-02 12:00:00 15.9 8 Nordeste 14 Nordeste 0 -- -- 72
2020-09-02 11:00:00 14.8 6 Este 10 Este 0 -- -- 76
2020-09-02 10:00:00 13.4 4 Nordeste 13 Nordeste 0 -- -- 84
2020-09-02 09:00:00 10.9 4 Nordeste 11 Nordeste 0 -- -- 96
2020-09-02 08:00:00 9.9 4 Norte 5 Norte 0 -- -- 95
2020-09-02 07:00:00 10.4 3 Norte 8 Norte 0 -- -- 93
2020-09-02 06:00:00 10.4 0 Calma 5 Sur 0 -- -- 95
2020-09-02 05:00:00 10.5 4 Noroeste 8 Norte 0 -- -- 95
2020-09-02 04:00:00 10.8 0 Calma 6 Noroeste 0 -- -- 93
2020-09-02 03:00:00 11.1 3 Norte 6 Noroeste 0 -- -- 90
2020-09-02 02:00:00 11.3 3 Norte 10 Oeste 0 -- -- 88
2020-09-02 01:00:00 11.2 4 Oeste 8 Oeste 0 -- -- 97
2020-09-02 00:00:00 11.4 0 Calma 6 Sur 0 -- -- 93
2020-09-01 23:00:00 11.7 5 Sur 15 Sudoeste 0 -- -- 92
2020-09-01 22:00:00 11.9 3 Sudoeste 6 Sudoeste 0 -- -- 94
2020-09-01 21:00:00 12.3 4 Sur 10 Nordeste 0 -- -- 96
2020-09-01 20:00:00 12.5 3 Nordeste 12 Nordeste 0 -- -- 93
2020-09-01 19:00:00 12.8 9 Nordeste 22 Nordeste 0 -- -- 93
2020-09-01 18:00:00 13.2 10 Nordeste 17 Nordeste 0 -- -- 91
2020-09-01 17:00:00 13.9 6 Este 16 Este 0 -- -- 90
2020-09-01 16:00:00 14.9 9 Nordeste 29 Nordeste 0 -- -- 85
2020-09-01 15:00:00 16 11 Nordeste 23 Nordeste 0 -- -- 82
2020-09-01 14:00:00 16.6 7 Nordeste 21 Nordeste 0 -- -- 72
2020-09-01 13:00:00 17.5 5 Nordeste 13 Nordeste 0 -- -- 67
2020-09-01 12:00:00 17.4 6 Sudeste 14 Sur 0 -- -- 70
2020-09-01 11:00:00 15.9 4 Sudeste 15 Sudoeste 0 -- -- 68
2020-09-01 10:00:00 14.4 4 Sur 8 Sudeste 0 -- -- 69
2020-09-01 09:00:00 13.2 6 Sudoeste 8 Oeste 0 -- -- 66
2020-09-01 08:00:00 12.7 2 Norte 5 Norte 0 -- -- 64
2020-09-01 07:00:00 12.4 3 Norte 8 Norte 0 -- -- 67
2020-09-01 06:00:00 12.5 3 Norte 6 Norte 0 -- -- 68
2020-09-01 05:00:00 12.7 4 Norte 5 Norte 0 -- -- 66
2020-09-01 04:00:00 12.8 6 Norte 9 Norte 0 -- -- 61
2020-09-01 03:00:00 13.2 4 Norte 10 Noroeste 0 -- -- 58
2020-09-01 02:00:00 13.4 2 Oeste 8 Noroeste 0 -- -- 59
2020-09-01 01:00:00 13.8 3 Norte 8 Norte 0 -- -- 59
2020-09-01 00:00:00 13.8 3 Sur 10 Norte 0 -- -- 58
2020-08-31 23:00:00 14.1 6 Noroeste 12 Noroeste 0 -- -- 53
2020-08-31 22:00:00 14.1 4 Norte 9 Noroeste 0 -- -- 62
2020-08-31 21:00:00 14.5 7 Oeste 10 Oeste 0 -- -- 65
2020-08-31 20:00:00 16.1 2 Sudeste 5 Sudeste 0 -- -- 63
2020-08-31 19:00:00 16.7 2 Sur 14 Sur 0 -- -- 63
2020-08-31 18:00:00 17.2 5 Sur 11 Sur 0 -- -- 62
2020-08-31 17:00:00 19.5 5 Sudeste 15 Nordeste 0 -- -- 56
2020-08-31 16:00:00 21 6 Sudeste 13 Sur 0 -- -- 50
2020-08-31 15:00:00 20.4 6 Sur 15 Sudeste 0 -- -- 47
2020-08-31 14:00:00 19.7 5 Sudeste 13 Sudeste 0 -- -- 51
2020-08-31 13:00:00 18.8 5 Sudeste 13 Sur 0 -- -- 50
2020-08-31 12:00:00 16.5 4 Sudeste 10 Este 0 -- -- 57
2020-08-31 11:00:00 13.9 4 Nordeste 10 Nordeste 0 -- -- 57
2020-08-31 10:00:00 12.4 3 Nordeste 8 Nordeste 0 -- -- 63
2020-08-31 09:00:00 9.8 4 Nordeste 10 Norte 0 -- -- 72
2020-08-31 08:00:00 8.8 6 Norte 10 Norte 0 -- -- 72
2020-08-31 07:00:00 8.1 7 Norte 10 Norte 0 -- -- 78
2020-08-31 06:00:00 7.4 7 Norte 10 Noroeste 0 -- -- 91
2020-08-31 05:00:00 7.1 4 Norte 12 Norte 0 -- -- 95
2020-08-31 04:00:00 7.5 3 Norte 6 Norte -- -- -- 90
2020-08-31 03:00:00 7.6 6 Norte 9 Norte 0 -- -- 93
2020-08-31 02:00:00 7.8 8 Norte 12 Nordeste 0 -- -- 93
2020-08-31 01:00:00 8.1 5 Norte 10 Noroeste 0 -- -- 83
2020-08-31 00:00:00 8.1 5 Norte 10 Noroeste 0 -- -- 83
2020-08-30 23:00:00 8.5 6 Norte 9 Norte 0 -- -- 81
2020-08-30 22:00:00 8.5 6 Noroeste 8 Norte 0 -- -- 85
2020-08-30 21:00:00 9.2 0 Calma 7 Nordeste 0 -- -- 88
2020-08-30 20:00:00 10 3 Sudeste 15 Este 0.2 -- -- 93
2020-08-30 19:00:00 10.2 8 Este 17 Nordeste 0 -- -- 90
2020-08-30 18:00:00 11.4 9 Nordeste 19 Nordeste 0 -- -- 87
2020-08-30 17:00:00 12.5 4 Este 15 Nordeste 0 -- -- 78
2020-08-30 16:00:00 12.9 8 Nordeste 19 Sur 0 -- -- 69
2020-08-30 15:00:00 12.3 6 Nordeste 18 Oeste 0 -- -- 75
2020-08-30 14:00:00 11.1 12 Sudoeste 21 Sur 0 -- -- 72
2020-08-30 13:00:00 10.5 8 Oeste 25 Sur 0.2 -- -- 83
2020-08-30 12:00:00 11.4 9 Sudoeste 31 Sudoeste 0 -- -- 72
2020-08-30 11:00:00 9.8 17 Sudoeste 27 Sudoeste 0.6 -- -- 83
2020-08-30 10:00:00 8.3 9 Oeste 30 Oeste 1.4 -- -- 93
2020-08-30 09:00:00 8.1 9 Oeste 35 Sudoeste 0.2 -- -- 87
2020-08-30 08:00:00 7.8 15 Oeste 26 Oeste 1.6 -- -- 89
2020-08-30 07:00:00 7.9 7 Oeste 15 Oeste 4.6 -- -- 94
2020-08-30 06:00:00 8.1 9 Sudoeste 21 Oeste 3 -- -- 94
2020-08-30 05:00:00 8.1 12 Oeste 22 Sudoeste 2 -- -- 92
2020-08-30 04:00:00 8.4 13 Oeste 19 Oeste 0 -- -- 89
2020-08-30 03:00:00 8.3 11 Oeste 26 Sudoeste 1.6 -- -- 92
2020-08-30 02:00:00 8.4 15 Oeste 21 Oeste 1 -- -- 89
2020-08-30 01:00:00 8.7 9 Oeste 24 Sudoeste 0 -- -- 86
2020-08-30 00:00:00 8.1 11 Oeste 30 Oeste 4 -- -- 92
2020-08-29 23:00:00 8.7 17 Sudoeste 32 Sudoeste 2 -- -- 88
2020-08-29 22:00:00 8.9 14 Oeste 22 Oeste 1.2 -- -- 89
2020-08-29 21:00:00 8.5 10 Oeste 23 Sudoeste 1.8 -- -- 91
2020-08-29 20:00:00 8.7 15 Oeste 31 Oeste 1.8 -- -- 89
2020-08-29 19:00:00 8.7 15 Sudoeste 29 Sudoeste 4.6 -- -- 93
2020-08-29 18:00:00 9 11 Noroeste 50 Noroeste 2.8 -- -- 93
2020-08-29 17:00:00 9.9 24 Oeste 48 Sudoeste 5.4 -- -- 90
2020-08-29 16:00:00 9.8 12 Oeste 28 Sudoeste 9 -- -- 94
2020-08-29 15:00:00 10.7 7 Oeste 33 Sudoeste 0.8 -- -- 89
2020-08-29 14:00:00 10.1 21 Sudoeste 40 Sudoeste 5.2 -- -- 90
2020-08-29 13:00:00 9.5 19 Oeste 39 Sudoeste 3 -- -- 87
2020-08-29 12:00:00 9.9 25 Sudoeste 43 Sudoeste 3.4 -- -- 90
2020-08-29 11:00:00 10 17 Oeste 51 Sudoeste 0.6 -- -- 90
2020-08-29 10:00:00 9.8 29 Sudoeste 48 Oeste 1.4 -- -- 89
2020-08-29 09:00:00 9.6 24 Sudoeste 37 Sudoeste 0.6 -- -- 88
2020-08-29 08:00:00 9.4 12 Oeste 42 Sudoeste 0.2 -- -- 84
2020-08-29 07:00:00 9.5 26 Sudoeste 65 Oeste 1.2 -- -- 86
2020-08-29 06:00:00 9.6 25 Sudoeste 43 Oeste 1.6 -- -- 88
2020-08-29 05:00:00 9.8 18 Oeste 38 Sudoeste 0 -- -- 86
2020-08-29 04:00:00 10.3 17 Oeste 36 Sudoeste 0 -- -- 80
2020-08-29 03:00:00 10.2 21 Oeste 36 Oeste 0 -- -- 78
2020-08-29 02:00:00 10.3 16 Oeste 31 Oeste 0 -- -- 73
2020-08-29 01:00:00 10.5 17 Oeste 33 Oeste 0 -- -- 65
2020-08-29 00:00:00 10.4 13 Oeste 51 Oeste 0 -- -- 69
2020-08-28 23:00:00 10.7 27 Oeste 49 Oeste 0 -- -- 76
2020-08-28 22:00:00 10.9 34 Sudoeste 60 Oeste 0 -- -- 80
2020-08-28 21:00:00 11.3 13 Oeste 39 Oeste 0 -- -- 83
2020-08-28 20:00:00 12 18 Oeste 37 Oeste 0 -- -- 79
2020-08-28 19:00:00 13.2 17 Noroeste 38 Oeste 0 -- -- 73
2020-08-28 18:00:00 13.7 12 Oeste 40 Oeste 0 -- -- 77
2020-08-28 17:00:00 14.4 14 Oeste 33 Oeste 0 -- -- 70
2020-08-28 16:00:00 14.5 14 Oeste 34 Oeste 0 -- -- 75
2020-08-28 15:00:00 15.5 13 Sudoeste 36 Sudoeste 0 -- -- 65
2020-08-28 14:00:00 14.9 10 Oeste 32 Sudoeste 0 -- -- 69
2020-08-28 13:00:00 13.5 19 Sudoeste 40 Oeste 0 -- -- 74
2020-08-28 12:00:00 12.8 22 Oeste 44 Oeste 0 -- -- 76
2020-08-28 11:00:00 12 23 Oeste 42 Oeste 0 -- -- 83
2020-08-28 10:00:00 11.5 26 Oeste 44 Oeste 0 -- -- 84
2020-08-28 09:00:00 11.3 24 Oeste 44 Oeste 0.2 -- -- 91
2020-08-28 08:00:00 12 13 Noroeste 32 Oeste 0 -- -- 95
2020-08-28 07:00:00 12.7 16 Oeste 30 Oeste 0 -- -- 94
2020-08-28 06:00:00 13.8 10 Sudoeste 27 Sudoeste 0 -- -- 98
2020-08-28 05:00:00 14.5 13 Oeste 35 Oeste 0 -- -- 94
2020-08-28 04:00:00 15 18 Noroeste 34 Oeste 0 -- -- 92
2020-08-28 03:00:00 15.8 5 Sudoeste 18 Oeste 0.2 -- -- 99
2020-08-28 02:00:00 15.9 5 Oeste 15 Oeste 0 -- -- 99
2020-08-28 01:00:00 16 3 Sudoeste 7 Sudoeste 0.4 -- -- 99
2020-08-28 00:00:00 16.2 3 Sur 5 Sur 0.4 -- -- 99
2020-08-27 23:00:00 16.5 2 Nordeste 4 Nordeste 0.2 -- -- 99
2020-08-27 22:00:00 16.5 2 Sur 5 Sudoeste 0.2 -- -- 99
2020-08-27 21:00:00 16.7 3 Sur 6 Sur 0.2 -- -- 99
2020-08-27 20:00:00 17 3 Sur 5 Sur 0.2 -- -- 99
2020-08-27 19:00:00 17 0 Calma 8 Nordeste 0 -- -- 98
2020-08-27 18:00:00 17.9 0 Calma 7 Sur 0 -- -- 97
2020-08-27 17:00:00 18.5 3 Sudeste 8 Este 0 -- -- 95
2020-08-27 16:00:00 19.7 3 Sur 7 Sur 0 -- -- 91
2020-08-27 15:00:00 20.7 5 Sudeste 20 Nordeste 0 -- -- 88
2020-08-27 14:00:00 23.5 5 Sudeste 14 Este 0 -- -- 76
2020-08-27 13:00:00 24 8 Sudeste 15 Sur 0 -- -- 74
2020-08-27 12:00:00 23.7 4 Sudeste 11 Sur 0 -- -- 73
2020-08-27 11:00:00 22.2 4 Sudeste 10 Sur 0 -- -- 77
2020-08-27 10:00:00 20.5 3 Sudeste 8 Este 0 -- -- 84
2020-08-27 09:00:00 18.7 4 Sur 19 Oeste 0 -- -- 85
2020-08-27 08:00:00 18 6 Oeste 13 Sudoeste 0 -- -- 89
2020-08-27 07:00:00 17.1 4 Norte 6 Noroeste 0 -- -- 93
2020-08-27 06:00:00 17.5 4 Norte 6 Norte 0 -- -- 93
2020-08-27 05:00:00 17.9 2 Norte 7 Sur 0 -- -- 91
2020-08-27 04:00:00 17.9 3 Nordeste 8 Norte 0 -- -- 92
2020-08-27 03:00:00 18 2 Sudoeste 4 Sudoeste 0 -- -- 91
2020-08-27 02:00:00 18.1 0 Calma 0 Calma 0 -- -- 91
2020-08-27 01:00:00 18.4 3 Noroeste 9 Oeste 0 -- -- 89
2020-08-27 00:00:00 18.7 4 Noroeste 11 Norte 0 -- -- 89
2020-08-26 23:00:00 18.7 2 Sudoeste 5 Sudoeste 0 -- -- 86
2020-08-26 22:00:00 18 0 Calma 6 Sudoeste 0 -- -- 93
2020-08-26 21:00:00 17.8 2 Sur 8 Nordeste 0 -- -- 98
2020-08-26 20:00:00 18.4 3 Sudoeste 9 Sudoeste 0 -- -- 96
2020-08-26 19:00:00 18.4 3 Sudoeste 9 Sur 0 -- -- 96
2020-08-26 18:00:00 20 3 Sur 9 Sur 0 -- -- 89
2020-08-26 17:00:00 22.1 4 Sudeste 10 Sur 0 -- -- 80
2020-08-26 16:00:00 23.8 5 Sudeste 12 Nordeste 0 -- -- 73
2020-08-26 15:00:00 23 5 Nordeste 17 Nordeste 0 -- -- 74
2020-08-26 14:00:00 23 7 Nordeste 18 Nordeste 0 -- -- 68
2020-08-26 13:00:00 21.9 5 Nordeste 13 Nordeste 0 -- -- 67
2020-08-26 12:00:00 21.5 5 Nordeste 10 Nordeste 0 -- -- 68
2020-08-26 11:00:00 21.1 4 Sudeste 10 Sur 0 -- -- 72
2020-08-26 10:00:00 18.9 4 Sudeste 9 Sur 0 -- -- 82
2020-08-26 09:00:00 16.5 2 Sudoeste 6 Oeste 0 -- -- 88
2020-08-26 08:00:00 16.1 3 Norte 4 Norte 0 -- -- 90
2020-08-26 07:00:00 16 3 Oeste 13 Sudoeste 0 -- -- 89
2020-08-26 06:00:00 15.8 6 Sudoeste 8 Sudoeste 0 -- -- 91
2020-08-26 05:00:00 15.9 0 Calma 6 Nordeste 0 -- -- 92
2020-08-26 04:00:00 16 4 Sudoeste 10 Sudoeste 0 -- -- 91
2020-08-26 03:00:00 16.2 2 Este 5 Este 0 -- -- 94
2020-08-26 02:00:00 16 3 Nordeste 5 Este 0 -- -- 95
2020-08-26 01:00:00 16.2 4 Nordeste 6 Nordeste 0 -- -- 94
2020-08-26 00:00:00 16.5 2 Sudoeste 7 Nordeste 0 -- -- 92
2020-08-25 23:00:00 16.4 3 Nordeste 5 Nordeste 0 -- -- 92
2020-08-25 22:00:00 17 5 Sur 9 Sur 0 -- -- 91
2020-08-25 21:00:00 17.5 3 Oeste 7 Sudoeste 0 -- -- 84
2020-08-25 20:00:00 19 0 Calma 9 Sur 0 -- -- 75
2020-08-25 19:00:00 21.7 6 Sudeste 14 Sur 0 -- -- 68
2020-08-25 18:00:00 24 8 Sur 14 Sur 0 -- -- 59
2020-08-25 17:00:00 25.3 6 Sudeste 14 Sur 0 -- -- 56
2020-08-25 16:00:00 25.1 6 Sudeste 14 Sur 0 -- -- 56
2020-08-25 15:00:00 24.5 5 Sudeste 14 Sur 0 -- -- 60
2020-08-25 14:00:00 24.6 5 Sudeste 13 Sur 0 -- -- 58
2020-08-25 13:00:00 24 6 Sur 12 Sudeste 0 -- -- 60
2020-08-25 12:00:00 22.7 4 Este 10 Nordeste 0 -- -- 61
2020-08-25 11:00:00 22.7 4 Este 8 Sudeste 0 -- -- 57
2020-08-25 10:00:00 20.6 2 Sudeste 7 Oeste 0 -- -- 67
2020-08-25 09:00:00 18.2 4 Sudoeste 6 Nordeste 0 -- -- 67
2020-08-25 08:00:00 18 3 Nordeste 12 Norte 0 -- -- 67
2020-08-25 07:00:00 18.7 9 Noroeste 12 Noroeste 0 -- -- 63
2020-08-25 06:00:00 19.4 6 Noroeste 10 Noroeste 0 -- -- 60
2020-08-25 05:00:00 19.5 6 Noroeste 13 Noroeste 0 -- -- 60
2020-08-25 04:00:00 19.9 6 Noroeste 10 Noroeste 0 -- -- 59
2020-08-25 03:00:00 19.6 7 Noroeste 9 Noroeste 0 -- -- 64
2020-08-25 02:00:00 19.4 5 Noroeste 11 Noroeste 0 -- -- 65
2020-08-25 01:00:00 19 0 Calma 4 Sudoeste 0 -- -- 67
2020-08-25 00:00:00 19.1 3 Sudoeste 5 Sudoeste 0 -- -- 67
2020-08-24 23:00:00 19 3 Noroeste 5 Noroeste 0 -- -- 68
2020-08-24 22:00:00 18.6 2 Oeste 7 Noroeste 0 -- -- 62
2020-08-24 21:00:00 18.7 4 Oeste 7 Sudoeste 0 -- -- 70
2020-08-24 20:00:00 21.2 2 Sudoeste 5 Sur 0 -- -- 72
2020-08-24 19:00:00 21.7 4 Sur 12 Este 0 -- -- 71
2020-08-24 18:00:00 21.8 4 Este 13 Sur 0 -- -- 69
2020-08-24 17:00:00 20.8 4 Nordeste 13 Nordeste 0 -- -- 72
2020-08-24 16:00:00 20 6 Nordeste 13 Nordeste 0 -- -- 73
2020-08-24 15:00:00 19.2 6 Nordeste 14 Nordeste 0 -- -- 74
2020-08-24 14:00:00 18.9 5 Nordeste 14 Este 0 -- -- 70
2020-08-24 13:00:00 19 6 Nordeste 13 Nordeste 0 -- -- 74
2020-08-24 12:00:00 18 4 Este 12 Sudeste 0 -- -- 79
2020-08-24 11:00:00 15.2 3 Sudeste 13 Nordeste 0 -- -- 87
2020-08-24 10:00:00 14.6 2 Este 8 Este 0 -- -- 89
2020-08-24 09:00:00 13.4 7 Nordeste 12 Este 0 -- -- 94
2020-08-24 08:00:00 12.6 0 Calma 5 Sur 0 -- -- 98
2020-08-24 07:00:00 12.8 0 Calma 6 Sur 0 -- -- 99
2020-08-24 06:00:00 12.8 0 Calma 4 Norte 0 -- -- 100
2020-08-24 05:00:00 12.7 0 Calma 5 Sudoeste 0 -- -- 100
2020-08-24 04:00:00 12.5 3 Sudoeste 6 Sur 0 -- -- 100
2020-08-24 03:00:00 12.7 3 Sur 6 Sudeste 0.2 -- -- 100
2020-08-24 02:00:00 13.2 0 Calma 5 Sur 0.2 -- -- 100
2020-08-24 01:00:00 13.3 3 Sur 5 Sur 0 -- -- 100
2020-08-24 00:00:00 13.2 3 Sur 5 Sur 0 -- -- 100
2020-08-23 23:00:00 13.3 0 Calma 5 Sur 0 -- -- 99
2020-08-23 22:00:00 13.5 4 Sur 7 Sudeste 0.2 -- -- 99
2020-08-23 21:00:00 13.7 4 Sur 10 Nordeste 0 -- -- 99
2020-08-23 20:00:00 13.8 3 Este 20 Nordeste 0 -- -- 99
2020-08-23 19:00:00 14 11 Nordeste 21 Norte 0 -- -- 98
2020-08-23 18:00:00 14.4 13 Nordeste 23 Nordeste 0 -- -- 96
2020-08-23 17:00:00 16 14 Nordeste 21 Nordeste 0 -- -- 89
2020-08-23 16:00:00 17.2 12 Norte 22 Nordeste 0 -- -- 83
2020-08-23 15:00:00 18.8 9 Nordeste 22 Nordeste 0 -- -- 74
2020-08-23 14:00:00 18.6 7 Nordeste 14 Sur 0 -- -- 73
2020-08-23 13:00:00 17.5 8 Nordeste 15 Nordeste 0 -- -- 72
2020-08-23 12:00:00 16.5 7 Nordeste 13 Norte 0 -- -- 75
2020-08-23 11:00:00 16.8 4 Este 10 Este 0 -- -- 71
2020-08-23 10:00:00 15.8 3 Nordeste 8 Sudeste 0 -- -- 78
2020-08-23 09:00:00 12.9 4 Sur 6 Sur 0 -- -- 85
2020-08-23 08:00:00 12.2 3 Sudoeste 6 Noroeste 0 -- -- 86
2020-08-23 07:00:00 12.4 3 Oeste 5 Oeste 0 -- -- 89
2020-08-23 06:00:00 12.5 3 Oeste 5 Oeste 0 -- -- 94
2020-08-23 05:00:00 12.2 0 Calma 8 Oeste 0 -- -- 96
2020-08-23 04:00:00 12.5 4 Oeste 6 Oeste 0 -- -- 95
2020-08-23 03:00:00 12.8 5 Noroeste 6 Noroeste 0 -- -- 94
2020-08-23 02:00:00 12.7 0 Calma 5 Sur 0 -- -- 94
2020-08-23 01:00:00 12.8 0 Calma 5 Noroeste 0 -- -- 92
2020-08-23 00:00:00 12.9 4 Sudoeste 5 Sudoeste 0 -- -- 96
2020-08-22 23:00:00 12.9 0 Calma 4 Sudeste 0 -- -- 96
2020-08-22 22:00:00 12.8 2 Noroeste 9 Norte 0 -- -- 97
2020-08-22 21:00:00 12.9 5 Sur 15 Nordeste 0.2 -- -- 99
2020-08-22 20:00:00 13.4 5 Nordeste 10 Nordeste 0.4 -- -- 98
2020-08-22 19:00:00 13.7 4 Sudeste 7 Sur 0 -- -- 98
2020-08-22 18:00:00 13.7 0 Calma 6 Sur 0 -- -- 98
2020-08-22 17:00:00 13.8 4 Sur 11 Sur 0 -- -- 97
2020-08-22 16:00:00 13.8 6 Nordeste 17 Nordeste 0 -- -- 96
2020-08-22 15:00:00 14 13 Nordeste 22 Nordeste 0 -- -- 97
2020-08-22 14:00:00 14.9 10 Nordeste 24 Nordeste 0 -- -- 94
2020-08-22 13:00:00 17.8 5 Nordeste 14 Nordeste 0 -- -- 81
2020-08-22 12:00:00 17.4 7 Nordeste 14 Nordeste 0 -- -- 84
2020-08-22 11:00:00 17 3 Este 9 Este 0 -- -- 88
2020-08-22 10:00:00 15.8 3 Este 7 Nordeste 0 -- -- 94
2020-08-22 09:00:00 13.8 0 Calma 8 Nordeste 0 -- -- 100
2020-08-22 08:00:00 13.5 5 Nordeste 9 Nordeste 0 -- -- 99
2020-08-22 07:00:00 13.6 3 Nordeste 6 Este 0 -- -- 99
2020-08-22 06:00:00 13.7 4 Nordeste 6 Nordeste 0 -- -- 99
2020-08-22 05:00:00 14 0 Calma 3 Sudeste 0 -- -- 98
2020-08-22 04:00:00 14 3 Sudeste 4 Sudeste 0 -- -- 98
2020-08-22 03:00:00 14.1 0 Calma 5 Nordeste 0 -- -- 97
2020-08-22 02:00:00 14.1 5 Nordeste 6 Nordeste 0 -- -- 94
2020-08-22 01:00:00 13.9 4 Norte 7 Norte 0 -- -- 97
2020-08-22 00:00:00 14.1 0 Calma 4 Sudoeste 0 -- -- 97
2020-08-21 23:00:00 14.3 0 Calma 4 Sudoeste 0 -- -- 95
2020-08-21 22:00:00 14.2 0 Calma 5 Sur 0 -- -- 94
2020-08-21 21:00:00 14.5 0 Calma 5 Nordeste 0 -- -- 93
2020-08-21 20:00:00 15.2 2 Sur 7 Sur 0 -- -- 91
2020-08-21 19:00:00 15.6 4 Sudeste 7 Sur 0 -- -- 90
2020-08-21 18:00:00 15.4 7 Nordeste 15 Nordeste 0 -- -- 89
2020-08-21 17:00:00 15.2 9 Nordeste 23 Nordeste 0 -- -- 90
2020-08-21 16:00:00 16.2 8 Nordeste 24 Nordeste 0 -- -- 84
2020-08-21 15:00:00 16.2 12 Norte 23 Este 0 -- -- 85
2020-08-21 14:00:00 16.3 10 Norte 22 Nordeste 0 -- -- 84
2020-08-21 13:00:00 16.4 11 Nordeste 22 Nordeste 0 -- -- 84
2020-08-21 12:00:00 16.7 10 Nordeste 18 Nordeste 0 -- -- 85
2020-08-21 11:00:00 17.9 5 Este 12 Nordeste 0 -- -- 84
2020-08-21 10:00:00 15.1 8 Nordeste 18 Norte 0 -- -- 90
2020-08-21 09:00:00 15.1 3 Nordeste 14 Nordeste 0 -- -- 97
2020-08-21 08:00:00 14.6 0 Calma 13 Nordeste 0 -- -- 98
2020-08-21 07:00:00 14.9 9 Nordeste 12 Nordeste 0 -- -- 98
2020-08-21 06:00:00 15.1 2 Sudoeste 8 Este 0 -- -- 97
2020-08-21 05:00:00 15 4 Nordeste 12 Nordeste 0 -- -- 98
2020-08-21 04:00:00 15.4 2 Nordeste 6 Nordeste 0 -- -- 92
2020-08-21 03:00:00 16 3 Sudeste 6 Sudeste 0 -- -- 93
2020-08-21 02:00:00 16.3 2 Sudoeste 8 Oeste 0 -- -- 94
2020-08-21 01:00:00 16.5 3 Norte 10 Sur 0 -- -- 92
2020-08-21 00:00:00 16.8 4 Noroeste 12 Nordeste 0 -- -- 87
2020-08-20 23:00:00 17.2 9 Nordeste 16 Nordeste 0.8 -- -- 88
2020-08-20 22:00:00 18.7 9 Nordeste 20 Nordeste 0 -- -- 86
2020-08-20 21:00:00 19.2 7 Nordeste 28 Sur 0 -- -- 82
2020-08-20 20:00:00 21.4 8 Sur 16 Sudoeste 0 -- -- 70
2020-08-20 19:00:00 20.1 8 Sudoeste 22 Sudoeste 0.2 -- -- 88
2020-08-20 18:00:00 19.4 4 Nordeste 18 Nordeste 2.2 -- -- 89
2020-08-20 17:00:00 20.6 8 Nordeste 21 Nordeste 0 -- -- 81
2020-08-20 16:00:00 21.5 8 Nordeste 19 Nordeste 0 -- -- 79
2020-08-20 15:00:00 23.6 7 Este 21 Sudeste 0 -- -- 62
2020-08-20 14:00:00 24.9 9 Sudeste 26 Sudeste 0 -- -- 62
2020-08-20 13:00:00 24.3 7 Este 23 Sudeste 0 -- -- 59
2020-08-20 12:00:00 21.4 7 Nordeste 17 Nordeste 0 -- -- 70
2020-08-20 11:00:00 18.2 10 Nordeste 21 Sudoeste 0 -- -- 80
2020-08-20 10:00:00 17.9 9 Norte 19 Norte 0 -- -- 74
2020-08-20 09:00:00 15.4 6 Sudoeste 12 Sudoeste 0 -- -- 97
2020-08-20 08:00:00 15.1 7 Sudoeste 19 Noroeste 0 -- -- 99
2020-08-20 07:00:00 15.3 3 Sur 10 Sur 0 -- -- 99
2020-08-20 06:00:00 15.4 5 Nordeste 10 Norte 0 -- -- 98
2020-08-20 05:00:00 15.7 4 Oeste 16 Norte 0 -- -- 96
2020-08-20 04:00:00 16 5 Norte 17 Nordeste 0 -- -- 88
2020-08-20 03:00:00 17 6 Nordeste 13 Norte 0 -- -- 77
2020-08-20 02:00:00 17.4 7 Nordeste 13 Norte 0 -- -- 72
2020-08-20 01:00:00 19.2 4 Este 20 Nordeste 0 -- -- 59
2020-08-20 00:00:00 23.3 5 Oeste 24 Sudoeste 0 -- -- 32